sensor_id;sensor_type;location;lat;lon;timestamp;P1;durP1;ratioP1;P2;durP2;ratioP2
22881;SDS011;11608;50.894;5.296;2022-09-09T00:04:42;19.92;;;18.52;;
22881;SDS011;11608;50.894;5.296;2022-09-09T00:15:16;20.63;;;19.33;;
22881;SDS011;11608;50.894;5.296;2022-09-09T00:20:39;19.80;;;18.45;;
22881;SDS011;11608;50.894;5.296;2022-09-09T00:28:17;19.40;;;18.10;;
22881;SDS011;11608;50.894;5.296;2022-09-09T00:30:44;20.67;;;19.15;;
22881;SDS011;11608;50.894;5.296;2022-09-09T00:33:13;19.98;;;18.48;;
22881;SDS011;11608;50.894;5.296;2022-09-09T00:35:50;20.77;;;19.23;;
22881;SDS011;11608;50.894;5.296;2022-09-09T00:38:23;20.38;;;18.90;;
22881;SDS011;11608;50.894;5.296;2022-09-09T00:40:50;20.55;;;19.05;;
22881;SDS011;11608;50.894;5.296;2022-09-09T00:43:28;20.17;;;18.65;;
22881;SDS011;11608;50.894;5.296;2022-09-09T00:48:48;22.05;;;20.25;;
22881;SDS011;11608;50.894;5.296;2022-09-09T00:54:03;20.20;;;18.77;;
22881;SDS011;11608;50.894;5.296;2022-09-09T00:56:37;20.80;;;19.40;;
22881;SDS011;11608;50.894;5.296;2022-09-09T01:01:36;21.85;;;20.02;;
22881;SDS011;11608;50.894;5.296;2022-09-09T01:04:05;21.42;;;19.70;;
22881;SDS011;11608;50.894;5.296;2022-09-09T01:06:34;20.90;;;19.40;;
22881;SDS011;11608;50.894;5.296;2022-09-09T01:16:40;20.83;;;19.10;;
22881;SDS011;11608;50.894;5.296;2022-09-09T01:19:07;21.63;;;19.92;;
22881;SDS011;11608;50.894;5.296;2022-09-09T01:24:22;21.15;;;19.40;;
22881;SDS011;11608;50.894;5.296;2022-09-09T01:26:52;21.63;;;20.02;;
22881;SDS011;11608;50.894;5.296;2022-09-09T01:29:21;21.70;;;20.02;;
22881;SDS011;11608;50.894;5.296;2022-09-09T01:31:55;20.85;;;19.25;;
22881;SDS011;11608;50.894;5.296;2022-09-09T01:34:22;21.50;;;19.75;;
22881;SDS011;11608;50.894;5.296;2022-09-09T01:36:59;22.05;;;19.98;;
22881;SDS011;11608;50.894;5.296;2022-09-09T01:39:29;21.77;;;19.90;;
22881;SDS011;11608;50.894;5.296;2022-09-09T01:41:55;22.15;;;20.23;;
22881;SDS011;11608;50.894;5.296;2022-09-09T01:44:22;23.13;;;21.17;;
22881;SDS011;11608;50.894;5.296;2022-09-09T01:46:48;22.73;;;21.02;;
22881;SDS011;11608;50.894;5.296;2022-09-09T01:49:14;22.77;;;20.98;;
22881;SDS011;11608;50.894;5.296;2022-09-09T01:51:41;22.35;;;20.25;;
22881;SDS011;11608;50.894;5.296;2022-09-09T01:54:08;21.55;;;19.88;;
22881;SDS011;11608;50.894;5.296;2022-09-09T02:04:33;21.02;;;19.42;;
22881;SDS011;11608;50.894;5.296;2022-09-09T02:06:55;22.35;;;20.23;;
22881;SDS011;11608;50.894;5.296;2022-09-09T02:09:22;21.33;;;19.73;;
22881;SDS011;11608;50.894;5.296;2022-09-09T02:11:48;21.70;;;19.75;;
22881;SDS011;11608;50.894;5.296;2022-09-09T02:14:22;21.88;;;20.05;;
22881;SDS011;11608;50.894;5.296;2022-09-09T02:16:54;21.42;;;19.67;;
22881;SDS011;11608;50.894;5.296;2022-09-09T02:19:26;20.50;;;19.13;;
22881;SDS011;11608;50.894;5.296;2022-09-09T02:21:55;22.23;;;20.33;;
22881;SDS011;11608;50.894;5.296;2022-09-09T02:24:21;21.30;;;19.50;;
22881;SDS011;11608;50.894;5.296;2022-09-09T02:26:49;22.38;;;20.63;;
22881;SDS011;11608;50.894;5.296;2022-09-09T02:29:28;21.90;;;20.15;;
22881;SDS011;11608;50.894;5.296;2022-09-09T02:31:55;21.02;;;19.45;;
22881;SDS011;11608;50.894;5.296;2022-09-09T02:34:23;21.20;;;19.50;;
22881;SDS011;11608;50.894;5.296;2022-09-09T02:36:52;22.63;;;20.17;;
22881;SDS011;11608;50.894;5.296;2022-09-09T02:39:19;21.50;;;19.95;;
22881;SDS011;11608;50.894;5.296;2022-09-09T02:41:45;22.27;;;20.52;;
22881;SDS011;11608;50.894;5.296;2022-09-09T02:44:13;21.88;;;20.20;;
22881;SDS011;11608;50.894;5.296;2022-09-09T02:52:02;21.85;;;20.17;;
22881;SDS011;11608;50.894;5.296;2022-09-09T02:54:31;21.67;;;19.98;;
22881;SDS011;11608;50.894;5.296;2022-09-09T02:57:20;22.48;;;20.67;;
22881;SDS011;11608;50.894;5.296;2022-09-09T02:59:44;22.33;;;20.67;;
22881;SDS011;11608;50.894;5.296;2022-09-09T03:02:11;21.95;;;20.35;;
22881;SDS011;11608;50.894;5.296;2022-09-09T03:04:39;22.58;;;20.70;;
22881;SDS011;11608;50.894;5.296;2022-09-09T03:07:08;21.95;;;20.25;;
22881;SDS011;11608;50.894;5.296;2022-09-09T03:09:34;21.80;;;19.85;;
22881;SDS011;11608;50.894;5.296;2022-09-09T03:12:01;21.30;;;19.60;;
22881;SDS011;11608;50.894;5.296;2022-09-09T03:14:29;20.95;;;19.15;;
22881;SDS011;11608;50.894;5.296;2022-09-09T03:16:56;19.98;;;18.48;;
22881;SDS011;11608;50.894;5.296;2022-09-09T03:19:25;21.45;;;19.63;;
22881;SDS011;11608;50.894;5.296;2022-09-09T03:21:52;21.65;;;19.77;;
22881;SDS011;11608;50.894;5.296;2022-09-09T03:24:18;22.98;;;20.92;;
22881;SDS011;11608;50.894;5.296;2022-09-09T03:26:45;22.45;;;20.45;;
22881;SDS011;11608;50.894;5.296;2022-09-09T03:29:12;22.73;;;20.92;;
22881;SDS011;11608;50.894;5.296;2022-09-09T03:31:39;22.13;;;20.52;;
22881;SDS011;11608;50.894;5.296;2022-09-09T03:34:08;22.52;;;20.40;;
22881;SDS011;11608;50.894;5.296;2022-09-09T03:36:34;22.13;;;20.42;;
22881;SDS011;11608;50.894;5.296;2022-09-09T03:39:00;21.45;;;19.42;;
22881;SDS011;11608;50.894;5.296;2022-09-09T03:41:28;21.17;;;19.17;;
22881;SDS011;11608;50.894;5.296;2022-09-09T03:43:54;21.42;;;19.52;;
22881;SDS011;11608;50.894;5.296;2022-09-09T03:46:21;21.85;;;20.02;;
22881;SDS011;11608;50.894;5.296;2022-09-09T03:48:47;22.45;;;20.63;;
22881;SDS011;11608;50.894;5.296;2022-09-09T03:51:13;22.10;;;20.20;;
22881;SDS011;11608;50.894;5.296;2022-09-09T03:53:40;23.83;;;21.80;;
22881;SDS011;11608;50.894;5.296;2022-09-09T03:56:07;23.80;;;21.90;;
22881;SDS011;11608;50.894;5.296;2022-09-09T03:58:33;22.58;;;20.98;;
22881;SDS011;11608;50.894;5.296;2022-09-09T04:01:01;23.88;;;21.83;;
22881;SDS011;11608;50.894;5.296;2022-09-09T04:03:28;23.95;;;21.95;;
22881;SDS011;11608;50.894;5.296;2022-09-09T04:05:54;22.15;;;20.60;;
22881;SDS011;11608;50.894;5.296;2022-09-09T04:08:21;26.23;;;23.08;;
22881;SDS011;11608;50.894;5.296;2022-09-09T04:10:48;24.77;;;22.60;;
22881;SDS011;11608;50.894;5.296;2022-09-09T04:13:14;23.73;;;21.70;;
22881;SDS011;11608;50.894;5.296;2022-09-09T04:15:42;22.92;;;21.00;;
22881;SDS011;11608;50.894;5.296;2022-09-09T04:18:08;22.50;;;20.58;;
22881;SDS011;11608;50.894;5.296;2022-09-09T04:20:35;21.70;;;20.10;;
22881;SDS011;11608;50.894;5.296;2022-09-09T04:23:01;22.17;;;20.40;;
22881;SDS011;11608;50.894;5.296;2022-09-09T04:25:27;22.27;;;20.63;;
22881;SDS011;11608;50.894;5.296;2022-09-09T04:27:56;22.95;;;21.23;;
22881;SDS011;11608;50.894;5.296;2022-09-09T04:30:23;21.88;;;20.23;;
22881;SDS011;11608;50.894;5.296;2022-09-09T04:32:50;21.92;;;20.33;;
22881;SDS011;11608;50.894;5.296;2022-09-09T04:35:16;21.88;;;20.17;;
22881;SDS011;11608;50.894;5.296;2022-09-09T04:37:43;21.83;;;19.90;;
22881;SDS011;11608;50.894;5.296;2022-09-09T04:40:09;22.25;;;20.13;;
22881;SDS011;11608;50.894;5.296;2022-09-09T04:42:37;21.23;;;19.50;;
22881;SDS011;11608;50.894;5.296;2022-09-09T04:45:03;21.20;;;19.52;;
22881;SDS011;11608;50.894;5.296;2022-09-09T04:47:30;22.45;;;20.42;;
22881;SDS011;11608;50.894;5.296;2022-09-09T04:49:56;21.88;;;20.08;;
22881;SDS011;11608;50.894;5.296;2022-09-09T04:52:22;21.38;;;19.77;;
22881;SDS011;11608;50.894;5.296;2022-09-09T04:54:48;22.33;;;20.52;;
22881;SDS011;11608;50.894;5.296;2022-09-09T04:57:14;22.30;;;20.10;;
22881;SDS011;11608;50.894;5.296;2022-09-09T04:59:40;21.98;;;20.00;;
22881;SDS011;11608;50.894;5.296;2022-09-09T05:02:06;21.75;;;19.92;;
22881;SDS011;11608;50.894;5.296;2022-09-09T05:04:32;20.92;;;19.27;;
22881;SDS011;11608;50.894;5.296;2022-09-09T05:06:58;21.52;;;19.73;;
22881;SDS011;11608;50.894;5.296;2022-09-09T05:09:25;20.77;;;18.98;;
22881;SDS011;11608;50.894;5.296;2022-09-09T05:11:51;20.73;;;18.80;;
22881;SDS011;11608;50.894;5.296;2022-09-09T05:14:17;20.50;;;18.63;;
22881;SDS011;11608;50.894;5.296;2022-09-09T05:16:46;20.17;;;18.05;;
22881;SDS011;11608;50.894;5.296;2022-09-09T05:19:12;21.65;;;19.80;;
22881;SDS011;11608;50.894;5.296;2022-09-09T05:21:38;20.35;;;18.55;;
22881;SDS011;11608;50.894;5.296;2022-09-09T05:24:04;21.98;;;19.83;;
22881;SDS011;11608;50.894;5.296;2022-09-09T05:26:30;20.88;;;18.92;;
22881;SDS011;11608;50.894;5.296;2022-09-09T05:28:57;21.25;;;19.30;;
22881;SDS011;11608;50.894;5.296;2022-09-09T05:31:25;21.35;;;19.02;;
22881;SDS011;11608;50.894;5.296;2022-09-09T05:33:52;21.30;;;19.05;;
22881;SDS011;11608;50.894;5.296;2022-09-09T05:36:21;20.08;;;18.08;;
22881;SDS011;11608;50.894;5.296;2022-09-09T05:38:47;19.55;;;17.90;;
22881;SDS011;11608;50.894;5.296;2022-09-09T05:41:14;21.63;;;19.30;;
22881;SDS011;11608;50.894;5.296;2022-09-09T05:43:41;20.35;;;18.45;;
22881;SDS011;11608;50.894;5.296;2022-09-09T05:46:16;19.88;;;17.88;;
22881;SDS011;11608;50.894;5.296;2022-09-09T05:48:43;19.52;;;17.70;;
22881;SDS011;11608;50.894;5.296;2022-09-09T05:51:12;20.10;;;18.10;;
22881;SDS011;11608;50.894;5.296;2022-09-09T05:53:40;20.42;;;18.50;;
22881;SDS011;11608;50.894;5.296;2022-09-09T05:56:08;18.98;;;17.13;;
22881;SDS011;11608;50.894;5.296;2022-09-09T05:58:37;22.58;;;17.63;;
22881;SDS011;11608;50.894;5.296;2022-09-09T06:01:07;19.75;;;17.98;;
22881;SDS011;11608;50.894;5.296;2022-09-09T06:03:35;20.48;;;18.77;;
22881;SDS011;11608;50.894;5.296;2022-09-09T06:06:02;20.42;;;18.35;;
22881;SDS011;11608;50.894;5.296;2022-09-09T06:08:30;20.27;;;18.52;;
22881;SDS011;11608;50.894;5.296;2022-09-09T06:11:03;20.42;;;18.23;;
22881;SDS011;11608;50.894;5.296;2022-09-09T06:13:30;22.60;;;20.42;;
22881;SDS011;11608;50.894;5.296;2022-09-09T06:15:56;19.98;;;18.00;;
22881;SDS011;11608;50.894;5.296;2022-09-09T06:18:23;19.92;;;17.80;;
22881;SDS011;11608;50.894;5.296;2022-09-09T06:21:02;19.98;;;18.27;;
22881;SDS011;11608;50.894;5.296;2022-09-09T06:23:29;21.30;;;19.00;;
22881;SDS011;11608;50.894;5.296;2022-09-09T06:26:05;19.70;;;17.92;;
22881;SDS011;11608;50.894;5.296;2022-09-09T06:28:32;20.10;;;18.20;;
22881;SDS011;11608;50.894;5.296;2022-09-09T06:30:59;19.50;;;17.88;;
22881;SDS011;11608;50.894;5.296;2022-09-09T06:33:25;20.38;;;18.65;;
22881;SDS011;11608;50.894;5.296;2022-09-09T06:35:53;22.42;;;19.13;;
22881;SDS011;11608;50.894;5.296;2022-09-09T06:38:19;20.52;;;18.73;;
22881;SDS011;11608;50.894;5.296;2022-09-09T06:40:51;19.98;;;18.38;;
22881;SDS011;11608;50.894;5.296;2022-09-09T06:43:17;19.88;;;18.38;;
22881;SDS011;11608;50.894;5.296;2022-09-09T06:45:52;20.90;;;18.40;;
22881;SDS011;11608;50.894;5.296;2022-09-09T06:48:18;21.60;;;19.60;;
22881;SDS011;11608;50.894;5.296;2022-09-09T06:50:44;21.38;;;18.80;;
22881;SDS011;11608;50.894;5.296;2022-09-09T06:53:10;21.80;;;18.35;;
22881;SDS011;11608;50.894;5.296;2022-09-09T06:55:36;19.60;;;17.73;;
22881;SDS011;11608;50.894;5.296;2022-09-09T06:58:02;19.25;;;17.42;;
22881;SDS011;11608;50.894;5.296;2022-09-09T07:00:28;19.55;;;17.60;;
22881;SDS011;11608;50.894;5.296;2022-09-09T07:02:55;18.95;;;17.52;;
22881;SDS011;11608;50.894;5.296;2022-09-09T07:05:21;20.33;;;18.27;;
22881;SDS011;11608;50.894;5.296;2022-09-09T07:07:46;20.15;;;18.33;;
22881;SDS011;11608;50.894;5.296;2022-09-09T07:10:13;19.58;;;17.88;;
22881;SDS011;11608;50.894;5.296;2022-09-09T07:12:39;20.13;;;18.23;;
22881;SDS011;11608;50.894;5.296;2022-09-09T07:15:05;19.55;;;18.00;;
22881;SDS011;11608;50.894;5.296;2022-09-09T07:17:31;20.35;;;18.45;;
22881;SDS011;11608;50.894;5.296;2022-09-09T07:19:57;22.05;;;19.08;;
22881;SDS011;11608;50.894;5.296;2022-09-09T07:22:23;21.40;;;19.10;;
22881;SDS011;11608;50.894;5.296;2022-09-09T07:24:50;21.92;;;19.65;;
22881;SDS011;11608;50.894;5.296;2022-09-09T07:27:16;20.85;;;19.08;;
22881;SDS011;11608;50.894;5.296;2022-09-09T07:29:42;21.48;;;19.60;;
22881;SDS011;11608;50.894;5.296;2022-09-09T07:32:08;20.35;;;18.52;;
22881;SDS011;11608;50.894;5.296;2022-09-09T07:34:34;22.60;;;20.50;;
22881;SDS011;11608;50.894;5.296;2022-09-09T07:37:00;21.17;;;18.98;;
22881;SDS011;11608;50.894;5.296;2022-09-09T07:39:26;20.88;;;18.85;;
22881;SDS011;11608;50.894;5.296;2022-09-09T07:41:52;21.15;;;19.10;;
22881;SDS011;11608;50.894;5.296;2022-09-09T07:44:20;20.70;;;18.85;;
22881;SDS011;11608;50.894;5.296;2022-09-09T07:46:47;21.00;;;19.20;;
22881;SDS011;11608;50.894;5.296;2022-09-09T07:49:13;19.98;;;18.38;;
22881;SDS011;11608;50.894;5.296;2022-09-09T07:51:43;20.58;;;18.90;;
22881;SDS011;11608;50.894;5.296;2022-09-09T07:54:11;21.23;;;18.92;;
22881;SDS011;11608;50.894;5.296;2022-09-09T07:56:37;20.90;;;18.98;;
22881;SDS011;11608;50.894;5.296;2022-09-09T07:59:04;20.33;;;18.33;;
22881;SDS011;11608;50.894;5.296;2022-09-09T08:01:35;20.08;;;18.40;;
22881;SDS011;11608;50.894;5.296;2022-09-09T08:04:04;21.40;;;19.30;;
22881;SDS011;11608;50.894;5.296;2022-09-09T08:06:34;27.80;;;24.98;;
22881;SDS011;11608;50.894;5.296;2022-09-09T08:09:00;35.25;;;26.17;;
22881;SDS011;11608;50.894;5.296;2022-09-09T08:11:27;20.40;;;18.60;;
22881;SDS011;11608;50.894;5.296;2022-09-09T08:13:54;23.33;;;20.85;;
22881;SDS011;11608;50.894;5.296;2022-09-09T08:16:21;20.98;;;19.25;;
22881;SDS011;11608;50.894;5.296;2022-09-09T08:18:51;20.85;;;18.58;;
22881;SDS011;11608;50.894;5.296;2022-09-09T08:21:19;19.75;;;18.15;;
22881;SDS011;11608;50.894;5.296;2022-09-09T08:23:46;20.25;;;18.58;;
22881;SDS011;11608;50.894;5.296;2022-09-09T08:26:14;21.02;;;18.75;;
22881;SDS011;11608;50.894;5.296;2022-09-09T08:28:40;20.15;;;18.27;;
22881;SDS011;11608;50.894;5.296;2022-09-09T08:31:07;21.58;;;19.48;;
22881;SDS011;11608;50.894;5.296;2022-09-09T08:33:34;20.70;;;18.90;;
22881;SDS011;11608;50.894;5.296;2022-09-09T08:36:02;21.83;;;19.10;;
22881;SDS011;11608;50.894;5.296;2022-09-09T08:38:28;20.75;;;18.77;;
22881;SDS011;11608;50.894;5.296;2022-09-09T08:40:58;21.38;;;19.52;;
22881;SDS011;11608;50.894;5.296;2022-09-09T08:43:26;21.08;;;19.02;;
22881;SDS011;11608;50.894;5.296;2022-09-09T08:51:00;20.48;;;18.05;;
22881;SDS011;11608;50.894;5.296;2022-09-09T08:53:28;20.67;;;18.98;;
22881;SDS011;11608;50.894;5.296;2022-09-09T08:55:59;20.95;;;19.05;;
22881;SDS011;11608;50.894;5.296;2022-09-09T08:58:28;19.52;;;17.85;;
22881;SDS011;11608;50.894;5.296;2022-09-09T09:10:57;19.52;;;17.92;;
22881;SDS011;11608;50.894;5.296;2022-09-09T09:13:30;20.23;;;18.65;;
22881;SDS011;11608;50.894;5.296;2022-09-09T09:15:59;20.08;;;18.27;;
22881;SDS011;11608;50.894;5.296;2022-09-09T09:18:26;20.17;;;18.58;;
22881;SDS011;11608;50.894;5.296;2022-09-09T09:23:25;21.10;;;19.20;;
22881;SDS011;11608;50.894;5.296;2022-09-09T09:25:56;19.67;;;18.08;;
22881;SDS011;11608;50.894;5.296;2022-09-09T09:28:26;19.75;;;18.25;;
22881;SDS011;11608;50.894;5.296;2022-09-09T09:31:06;21.52;;;18.77;;
22881;SDS011;11608;50.894;5.296;2022-09-09T09:36:11;19.00;;;17.55;;
22881;SDS011;11608;50.894;5.296;2022-09-09T09:38:40;20.38;;;18.67;;
22881;SDS011;11608;50.894;5.296;2022-09-09T09:41:16;19.73;;;18.23;;
22881;SDS011;11608;50.894;5.296;2022-09-09T09:43:52;20.27;;;18.70;;
22881;SDS011;11608;50.894;5.296;2022-09-09T09:46:20;20.75;;;18.77;;
22881;SDS011;11608;50.894;5.296;2022-09-09T09:48:58;20.50;;;18.70;;
22881;SDS011;11608;50.894;5.296;2022-09-09T09:51:25;23.00;;;20.63;;
22881;SDS011;11608;50.894;5.296;2022-09-09T09:53:51;21.80;;;19.77;;
22881;SDS011;11608;50.894;5.296;2022-09-09T09:56:27;20.08;;;18.58;;
22881;SDS011;11608;50.894;5.296;2022-09-09T09:58:54;19.67;;;18.17;;
22881;SDS011;11608;50.894;5.296;2022-09-09T10:01:24;19.63;;;18.05;;
22881;SDS011;11608;50.894;5.296;2022-09-09T10:03:56;21.05;;;19.27;;
22881;SDS011;11608;50.894;5.296;2022-09-09T10:06:30;21.00;;;19.23;;
22881;SDS011;11608;50.894;5.296;2022-09-09T10:08:56;20.50;;;18.58;;
22881;SDS011;11608;50.894;5.296;2022-09-09T10:14:23;20.20;;;18.58;;
22881;SDS011;11608;50.894;5.296;2022-09-09T10:17:03;20.40;;;18.48;;
22881;SDS011;11608;50.894;5.296;2022-09-09T10:19:34;21.77;;;19.55;;
22881;SDS011;11608;50.894;5.296;2022-09-09T10:27:20;19.50;;;17.90;;
22881;SDS011;11608;50.894;5.296;2022-09-09T10:32:45;21.13;;;19.13;;
22881;SDS011;11608;50.894;5.296;2022-09-09T10:40:32;20.92;;;19.27;;
22881;SDS011;11608;50.894;5.296;2022-09-09T10:43:01;20.98;;;19.13;;
22881;SDS011;11608;50.894;5.296;2022-09-09T10:48:55;20.30;;;18.88;;
22881;SDS011;11608;50.894;5.296;2022-09-09T10:56:32;19.63;;;18.10;;
22881;SDS011;11608;50.894;5.296;2022-09-09T10:59:04;20.60;;;18.90;;
22881;SDS011;11608;50.894;5.296;2022-09-09T11:04:12;20.48;;;18.85;;
22881;SDS011;11608;50.894;5.296;2022-09-09T11:06:41;20.08;;;18.48;;
22881;SDS011;11608;50.894;5.296;2022-09-09T11:09:13;20.00;;;18.25;;
22881;SDS011;11608;50.894;5.296;2022-09-09T11:11:42;20.17;;;18.55;;
22881;SDS011;11608;50.894;5.296;2022-09-09T11:17:00;19.83;;;18.33;;
22881;SDS011;11608;50.894;5.296;2022-09-09T11:19:28;20.60;;;18.95;;
22881;SDS011;11608;50.894;5.296;2022-09-09T11:21:57;19.38;;;17.77;;
22881;SDS011;11608;50.894;5.296;2022-09-09T11:24:30;20.02;;;18.27;;
22881;SDS011;11608;50.894;5.296;2022-09-09T11:26:58;19.40;;;17.80;;
22881;SDS011;11608;50.894;5.296;2022-09-09T11:42:33;21.25;;;19.50;;
22881;SDS011;11608;50.894;5.296;2022-09-09T11:45:08;20.13;;;18.52;;
22881;SDS011;11608;50.894;5.296;2022-09-09T11:47:36;20.60;;;19.00;;
22881;SDS011;11608;50.894;5.296;2022-09-09T11:52:45;20.58;;;18.83;;
22881;SDS011;11608;50.894;5.296;2022-09-09T11:55:31;20.55;;;18.75;;
22881;SDS011;11608;50.894;5.296;2022-09-09T12:00:41;20.35;;;18.50;;
22881;SDS011;11608;50.894;5.296;2022-09-09T12:05:54;20.00;;;18.40;;
22881;SDS011;11608;50.894;5.296;2022-09-09T12:08:27;21.45;;;19.60;;
22881;SDS011;11608;50.894;5.296;2022-09-09T12:10:57;20.27;;;18.65;;
22881;SDS011;11608;50.894;5.296;2022-09-09T12:13:25;20.85;;;19.27;;
22881;SDS011;11608;50.894;5.296;2022-09-09T12:15:52;19.52;;;17.65;;
22881;SDS011;11608;50.894;5.296;2022-09-09T12:18:23;18.35;;;16.95;;
22881;SDS011;11608;50.894;5.296;2022-09-09T12:20:52;19.00;;;17.45;;
22881;SDS011;11608;50.894;5.296;2022-09-09T12:28:18;19.38;;;17.88;;
22881;SDS011;11608;50.894;5.296;2022-09-09T12:33:39;19.17;;;17.85;;
22881;SDS011;11608;50.894;5.296;2022-09-09T12:36:11;18.80;;;17.40;;
22881;SDS011;11608;50.894;5.296;2022-09-09T12:38:39;18.27;;;16.98;;
22881;SDS011;11608;50.894;5.296;2022-09-09T12:41:06;19.65;;;18.17;;
22881;SDS011;11608;50.894;5.296;2022-09-09T12:43:32;20.00;;;18.58;;
22881;SDS011;11608;50.894;5.296;2022-09-09T12:46:08;20.30;;;18.75;;
22881;SDS011;11608;50.894;5.296;2022-09-09T12:48:37;20.58;;;18.98;;
22881;SDS011;11608;50.894;5.296;2022-09-09T12:51:05;19.67;;;18.17;;
22881;SDS011;11608;50.894;5.296;2022-09-09T12:53:33;20.67;;;19.02;;
22881;SDS011;11608;50.894;5.296;2022-09-09T12:56:01;20.15;;;18.70;;
22881;SDS011;11608;50.894;5.296;2022-09-09T12:58:28;20.98;;;19.35;;
22881;SDS011;11608;50.894;5.296;2022-09-09T13:00:57;20.55;;;19.08;;
22881;SDS011;11608;50.894;5.296;2022-09-09T13:03:24;20.40;;;19.00;;
22881;SDS011;11608;50.894;5.296;2022-09-09T13:05:51;20.88;;;19.45;;
22881;SDS011;11608;50.894;5.296;2022-09-09T13:08:18;20.08;;;18.58;;
22881;SDS011;11608;50.894;5.296;2022-09-09T13:10:52;19.67;;;18.42;;
22881;SDS011;11608;50.894;5.296;2022-09-09T13:13:23;20.23;;;18.67;;
22881;SDS011;11608;50.894;5.296;2022-09-09T13:15:51;20.35;;;18.92;;
22881;SDS011;11608;50.894;5.296;2022-09-09T13:18:19;20.15;;;18.75;;
22881;SDS011;11608;50.894;5.296;2022-09-09T13:20:47;20.67;;;18.95;;
22881;SDS011;11608;50.894;5.296;2022-09-09T13:23:13;20.00;;;18.50;;
22881;SDS011;11608;50.894;5.296;2022-09-09T13:25:42;20.73;;;19.00;;
22881;SDS011;11608;50.894;5.296;2022-09-09T13:28:20;20.38;;;18.88;;
22881;SDS011;11608;50.894;5.296;2022-09-09T13:30:55;19.45;;;17.98;;
22881;SDS011;11608;50.894;5.296;2022-09-09T13:33:24;18.88;;;17.58;;
22881;SDS011;11608;50.894;5.296;2022-09-09T13:38:20;19.50;;;18.00;;
22881;SDS011;11608;50.894;5.296;2022-09-09T13:41:06;19.73;;;18.33;;
22881;SDS011;11608;50.894;5.296;2022-09-09T13:43:42;20.05;;;18.55;;
22881;SDS011;11608;50.894;5.296;2022-09-09T13:48:55;20.23;;;18.63;;
22881;SDS011;11608;50.894;5.296;2022-09-09T13:51:27;20.73;;;19.20;;
22881;SDS011;11608;50.894;5.296;2022-09-09T13:53:55;20.08;;;18.30;;
22881;SDS011;11608;50.894;5.296;2022-09-09T13:56:22;19.52;;;18.00;;
22881;SDS011;11608;50.894;5.296;2022-09-09T13:58:48;19.90;;;18.50;;
22881;SDS011;11608;50.894;5.296;2022-09-09T14:01:14;19.23;;;18.02;;
22881;SDS011;11608;50.894;5.296;2022-09-09T14:03:40;19.30;;;17.70;;
22881;SDS011;11608;50.894;5.296;2022-09-09T14:06:07;19.33;;;17.92;;
22881;SDS011;11608;50.894;5.296;2022-09-09T14:08:33;19.40;;;17.98;;
22881;SDS011;11608;50.894;5.296;2022-09-09T14:11:02;18.45;;;17.20;;
22881;SDS011;11608;50.894;5.296;2022-09-09T14:13:28;20.15;;;18.70;;
22881;SDS011;11608;50.894;5.296;2022-09-09T14:15:55;20.30;;;18.70;;
22881;SDS011;11608;50.894;5.296;2022-09-09T14:18:21;19.58;;;18.17;;
22881;SDS011;11608;50.894;5.296;2022-09-09T14:20:48;19.75;;;18.25;;
22881;SDS011;11608;50.894;5.296;2022-09-09T14:23:15;19.73;;;18.33;;
22881;SDS011;11608;50.894;5.296;2022-09-09T14:25:42;19.52;;;18.02;;
22881;SDS011;11608;50.894;5.296;2022-09-09T14:28:11;19.40;;;18.00;;
22881;SDS011;11608;50.894;5.296;2022-09-09T14:30:38;18.80;;;17.50;;
22881;SDS011;11608;50.894;5.296;2022-09-09T14:33:05;18.40;;;17.10;;
22881;SDS011;11608;50.894;5.296;2022-09-09T14:35:31;18.50;;;17.10;;
22881;SDS011;11608;50.894;5.296;2022-09-09T14:37:58;18.27;;;16.98;;
22881;SDS011;11608;50.894;5.296;2022-09-09T14:40:25;18.52;;;17.02;;
22881;SDS011;11608;50.894;5.296;2022-09-09T14:42:52;18.30;;;16.92;;
22881;SDS011;11608;50.894;5.296;2022-09-09T14:45:18;18.20;;;16.95;;
22881;SDS011;11608;50.894;5.296;2022-09-09T14:47:46;18.52;;;17.25;;
22881;SDS011;11608;50.894;5.296;2022-09-09T14:50:12;18.70;;;17.27;;
22881;SDS011;11608;50.894;5.296;2022-09-09T14:52:38;19.13;;;17.60;;
22881;SDS011;11608;50.894;5.296;2022-09-09T14:55:05;19.15;;;17.88;;
22881;SDS011;11608;50.894;5.296;2022-09-09T14:57:32;18.67;;;17.40;;
22881;SDS011;11608;50.894;5.296;2022-09-09T14:59:59;18.35;;;16.95;;
22881;SDS011;11608;50.894;5.296;2022-09-09T15:02:25;18.55;;;16.95;;
22881;SDS011;11608;50.894;5.296;2022-09-09T15:04:52;18.88;;;17.48;;
22881;SDS011;11608;50.894;5.296;2022-09-09T15:07:22;18.73;;;17.42;;
22881;SDS011;11608;50.894;5.296;2022-09-09T15:09:48;18.85;;;17.48;;
22881;SDS011;11608;50.894;5.296;2022-09-09T15:12:14;19.77;;;18.27;;
22881;SDS011;11608;50.894;5.296;2022-09-09T15:14:43;19.77;;;18.27;;
22881;SDS011;11608;50.894;5.296;2022-09-09T15:17:09;18.85;;;17.55;;
22881;SDS011;11608;50.894;5.296;2022-09-09T15:19:36;19.02;;;17.45;;
22881;SDS011;11608;50.894;5.296;2022-09-09T15:22:02;18.58;;;17.13;;
22881;SDS011;11608;50.894;5.296;2022-09-09T15:24:30;18.42;;;17.15;;
22881;SDS011;11608;50.894;5.296;2022-09-09T15:26:56;19.05;;;17.65;;
22881;SDS011;11608;50.894;5.296;2022-09-09T15:29:22;19.08;;;17.60;;
22881;SDS011;11608;50.894;5.296;2022-09-09T15:31:48;18.77;;;17.33;;
22881;SDS011;11608;50.894;5.296;2022-09-09T15:34:14;18.77;;;17.27;;
22881;SDS011;11608;50.894;5.296;2022-09-09T15:36:41;19.33;;;17.85;;
22881;SDS011;11608;50.894;5.296;2022-09-09T15:39:08;19.27;;;17.77;;
22881;SDS011;11608;50.894;5.296;2022-09-09T15:41:37;19.92;;;18.08;;
22881;SDS011;11608;50.894;5.296;2022-09-09T15:44:04;19.90;;;18.25;;
22881;SDS011;11608;50.894;5.296;2022-09-09T15:46:37;18.60;;;17.25;;
22881;SDS011;11608;50.894;5.296;2022-09-09T15:51:29;19.10;;;17.63;;
22881;SDS011;11608;50.894;5.296;2022-09-09T15:53:56;20.10;;;18.48;;
22881;SDS011;11608;50.894;5.296;2022-09-09T15:56:23;19.02;;;17.63;;
22881;SDS011;11608;50.894;5.296;2022-09-09T15:58:49;19.02;;;17.73;;
22881;SDS011;11608;50.894;5.296;2022-09-09T16:01:17;19.75;;;18.17;;
22881;SDS011;11608;50.894;5.296;2022-09-09T16:03:44;19.08;;;17.58;;
22881;SDS011;11608;50.894;5.296;2022-09-09T16:06:15;19.50;;;17.95;;
22881;SDS011;11608;50.894;5.296;2022-09-09T16:08:43;19.48;;;18.08;;
22881;SDS011;11608;50.894;5.296;2022-09-09T16:11:14;18.92;;;17.50;;
22881;SDS011;11608;50.894;5.296;2022-09-09T16:13:41;18.95;;;17.55;;
22881;SDS011;11608;50.894;5.296;2022-09-09T16:16:07;18.83;;;17.50;;
22881;SDS011;11608;50.894;5.296;2022-09-09T16:18:34;19.02;;;17.52;;
22881;SDS011;11608;50.894;5.296;2022-09-09T16:21:00;18.13;;;16.92;;
22881;SDS011;11608;50.894;5.296;2022-09-09T16:23:26;19.17;;;17.85;;
22881;SDS011;11608;50.894;5.296;2022-09-09T16:25:55;18.33;;;16.85;;
22881;SDS011;11608;50.894;5.296;2022-09-09T16:28:22;18.48;;;17.20;;
22881;SDS011;11608;50.894;5.296;2022-09-09T16:30:48;18.85;;;17.35;;
22881;SDS011;11608;50.894;5.296;2022-09-09T16:33:14;19.63;;;18.13;;
22881;SDS011;11608;50.894;5.296;2022-09-09T16:35:41;19.55;;;18.08;;
22881;SDS011;11608;50.894;5.296;2022-09-09T16:38:07;19.80;;;18.40;;
22881;SDS011;11608;50.894;5.296;2022-09-09T16:40:33;19.33;;;17.90;;
22881;SDS011;11608;50.894;5.296;2022-09-09T16:43:00;19.50;;;18.10;;
22881;SDS011;11608;50.894;5.296;2022-09-09T16:45:26;19.20;;;17.80;;